Goiana, Brazil
Current Conditions -  °F | °C
As of 11:00 AM on Thursday 18 Dec 2014 (Local Time) from SBJP Reporting Station
Scattered Clouds Scattered Clouds  
Wind Chill: 86°   Ceiling: Unl
Heat Index: 88°   Visibility: 6mi
Dew Point: 66°   Wind: 12mph
Humidity: 51%   Direction: 70°ENE
Pressure: 29.94"   Gusts: NA
Location:  7.56°S, 35°W
Report Text: SBJP 181400Z 07010KT 030V100 9999 SCT030 30/19 Q1014
Loading
Personal Weather Stations






























Interactive Weather Map New forecast layout! Learn more

10-Day Weather Forecast

Advertisements
Track Severe Weather on mobile